createdAt,value
2018-01-15T00:01:48.498Z,23.33
2018-01-15T00:04:23.240Z,23.33
2018-01-15T00:06:57.583Z,21.10
2018-01-15T00:09:32.021Z,23.30
2018-01-15T00:12:07.108Z,32.23
2018-01-15T00:14:41.822Z,24.43
2018-01-15T00:17:15.865Z,26.53
2018-01-15T00:19:50.425Z,21.80
2018-01-15T00:22:32.923Z,30.17
2018-01-15T00:25:08.184Z,29.23
2018-01-15T00:27:42.580Z,29.27
2018-01-15T00:30:16.459Z,40.67
2018-01-15T00:32:51.200Z,30.20
2018-01-15T00:35:25.842Z,48.20
2018-01-15T00:37:59.922Z,58.33
2018-01-15T00:40:33.721Z,50.70
2018-01-15T00:43:08.968Z,44.83
2018-01-15T00:45:43.419Z,38.00
2018-01-15T00:48:17.981Z,27.13
2018-01-15T00:50:52.312Z,28.50
2018-01-15T00:53:26.386Z,25.33
2018-01-15T00:56:01.133Z,26.30
2018-01-15T00:58:35.382Z,41.10
2018-01-15T01:01:09.232Z,28.97
2018-01-15T01:03:43.146Z,22.77
2018-01-15T01:06:16.925Z,32.70
2018-01-15T01:08:51.642Z,23.20
2018-01-15T01:11:25.523Z,28.43
2018-01-15T01:13:59.270Z,23.87
2018-01-15T01:16:33.209Z,25.10
2018-01-15T01:19:07.937Z,21.97
2018-01-15T01:21:41.635Z,20.83
2018-01-15T01:24:16.271Z,22.10
2018-01-15T01:26:50.215Z,23.73
2018-01-15T01:29:23.920Z,22.37
2018-01-15T01:31:57.723Z,27.90
2018-01-15T01:34:32.234Z,22.97
2018-01-15T01:37:06.006Z,23.47
2018-01-15T01:39:39.745Z,21.00
2018-01-15T01:42:15.055Z,22.70
2018-01-15T01:44:49.603Z,18.80
2018-01-15T01:47:24.071Z,20.23
2018-01-15T01:49:58.965Z,23.70
2018-01-15T01:52:33.394Z,24.87
2018-01-15T01:55:08.712Z,19.93
2018-01-15T01:57:42.810Z,21.87
2018-01-15T02:00:16.801Z,22.77
2018-01-15T02:02:51.554Z,25.87
2018-01-15T02:05:26.128Z,21.20
2018-01-15T02:08:00.496Z,27.77
2018-01-15T02:10:34.367Z,21.60
2018-01-15T02:13:08.216Z,27.53
2018-01-15T02:15:42.054Z,25.37
2018-01-15T02:18:15.810Z,23.00
2018-01-15T02:20:49.674Z,25.43
2018-01-15T02:23:25.232Z,26.97
2018-01-15T02:25:59.290Z,29.97
2018-01-15T02:28:33.872Z,26.43
2018-01-15T02:31:08.064Z,23.97
2018-01-15T02:33:42.499Z,27.37
2018-01-15T02:36:16.401Z,28.03
2018-01-15T02:38:51.040Z,27.43
2018-01-15T02:41:25.019Z,29.30
2018-01-15T02:43:59.670Z,27.77
2018-01-15T02:46:33.743Z,28.20
2018-01-15T02:49:07.737Z,29.00
2018-01-15T02:51:43.205Z,27.57
2018-01-15T02:54:18.162Z,26.33
2018-01-15T02:56:53.141Z,27.37
2018-01-15T02:59:27.920Z,24.57
2018-01-15T03:02:02.654Z,27.63
2018-01-15T03:04:36.479Z,26.23
2018-01-15T03:07:10.258Z,30.50
2018-01-15T03:09:44.530Z,28.73
2018-01-15T03:12:18.329Z,28.13
2018-01-15T03:14:52.075Z,27.83
2018-01-15T03:17:26.943Z,27.73
2018-01-15T03:20:01.071Z,27.97
2018-01-15T03:22:34.893Z,32.63
2018-01-15T03:25:09.581Z,29.17
2018-01-15T03:27:43.557Z,33.43
2018-01-15T03:30:17.392Z,29.17
2018-01-15T03:32:51.569Z,29.77
2018-01-15T03:35:25.502Z,29.70
2018-01-15T03:38:00.177Z,32.53
2018-01-15T03:40:34.180Z,30.73
2018-01-15T03:43:08.346Z,27.37
2018-01-15T03:45:42.529Z,31.57
2018-01-15T03:48:16.463Z,29.17
2018-01-15T03:50:50.138Z,26.27
2018-01-15T03:53:24.751Z,29.20
2018-01-15T03:55:58.763Z,29.83
2018-01-15T03:58:32.533Z,29.97
2018-01-15T04:01:08.221Z,29.13
2018-01-15T04:03:42.060Z,28.07
2018-01-15T04:06:15.692Z,27.43
2018-01-15T04:08:49.453Z,27.17
2018-01-15T04:11:23.538Z,32.17
2018-01-15T04:13:57.571Z,24.93
2018-01-15T04:16:31.397Z,27.27
2018-01-15T04:19:05.693Z,25.53
2018-01-15T04:21:41.301Z,26.63
2018-01-15T04:24:15.287Z,31.10
2018-01-15T04:26:49.403Z,27.23
2018-01-15T04:29:24.144Z,26.13
2018-01-15T04:31:58.187Z,29.17
2018-01-15T04:34:32.141Z,28.97
2018-01-15T04:37:06.885Z,27.27
2018-01-15T04:39:40.929Z,27.87
2018-01-15T04:42:14.780Z,25.93
2018-01-15T04:44:48.697Z,24.97
2018-01-15T04:47:23.324Z,28.90
2018-01-15T04:49:57.457Z,29.70
2018-01-15T04:52:31.594Z,27.67
2018-01-15T04:55:06.202Z,30.30
2018-01-15T04:57:40.305Z,23.70
2018-01-15T05:00:14.181Z,25.87
2018-01-15T05:02:47.933Z,29.33
2018-01-15T05:05:21.786Z,24.40
2018-01-15T05:07:56.327Z,27.47
2018-01-15T05:10:30.472Z,25.67
2018-01-15T05:13:04.437Z,28.17
2018-01-15T05:15:38.107Z,26.93
2018-01-15T05:18:13.626Z,27.07
2018-01-15T05:20:47.945Z,28.43
2018-01-15T05:23:23.939Z,26.03
2018-01-15T05:25:58.188Z,27.80
2018-01-15T05:28:32.167Z,26.77
2018-01-15T05:31:06.199Z,28.40
2018-01-15T05:33:40.790Z,29.97
2018-01-15T05:36:14.780Z,27.30
2018-01-15T05:38:48.802Z,26.90
2018-01-15T05:41:22.551Z,24.57
2018-01-15T05:43:56.686Z,25.13
2018-01-15T05:46:31.332Z,24.20
2018-01-15T05:49:06.085Z,25.13
2018-01-15T05:51:40.573Z,27.50
2018-01-15T05:54:14.683Z,26.20
2018-01-15T05:56:49.308Z,27.03
2018-01-15T05:59:23.333Z,25.57
2018-01-15T06:01:57.509Z,28.07
2018-01-15T06:04:32.137Z,24.57
2018-01-15T06:07:06.250Z,27.27
2018-01-15T06:09:40.666Z,27.07
2018-01-15T06:12:14.841Z,26.27
2018-01-15T06:14:49.288Z,27.30
2018-01-15T06:17:24.437Z,29.37
2018-01-15T06:19:58.459Z,28.60
2018-01-15T06:22:32.351Z,27.47
2018-01-15T06:25:07.841Z,27.07
2018-01-15T06:27:41.767Z,26.07
2018-01-15T06:30:16.029Z,24.93
2018-01-15T06:32:50.845Z,28.43
2018-01-15T06:35:24.710Z,24.93
2018-01-15T06:37:58.665Z,26.57
2018-01-15T06:40:34.107Z,26.47
2018-01-15T06:43:08.598Z,27.73
2018-01-15T06:45:43.247Z,38.00
2018-01-15T06:48:17.124Z,44.30
2018-01-15T06:50:51.807Z,26.30
2018-01-15T06:53:26.329Z,28.97
2018-01-15T06:56:00.912Z,27.73
2018-01-15T06:58:35.737Z,25.93
2018-01-15T07:01:09.567Z,28.90
2018-01-15T07:03:44.118Z,25.57
2018-01-15T07:06:18.251Z,30.10
2018-01-15T07:08:52.044Z,26.50
2018-01-15T07:11:26.243Z,30.93
2018-01-15T07:14:00.310Z,26.23
2018-01-15T07:16:34.957Z,26.97
2018-01-15T07:19:09.920Z,27.43
2018-01-15T07:21:44.027Z,25.00
2018-01-15T07:24:17.759Z,23.90
2018-01-15T07:26:52.416Z,26.03
2018-01-15T07:29:27.117Z,28.63
2018-01-15T07:32:00.855Z,31.27
2018-01-15T07:34:34.850Z,29.00
2018-01-15T07:37:09.432Z,25.07
2018-01-15T07:39:44.618Z,26.67
2018-01-15T07:42:19.481Z,28.93
2018-01-15T07:44:54.422Z,27.63
2018-01-15T07:47:28.825Z,24.70
2018-01-15T07:50:03.811Z,28.47
2018-01-15T07:52:38.281Z,28.03
2018-01-15T07:55:12.344Z,35.10
2018-01-15T07:57:46.162Z,28.83
2018-01-15T08:00:20.930Z,29.80
2018-01-15T08:02:55.078Z,27.97
2018-01-15T08:05:28.864Z,30.37
2018-01-15T08:08:02.610Z,30.37
2018-01-15T08:10:36.958Z,25.70
2018-01-15T08:13:10.856Z,26.07
2018-01-15T08:15:44.646Z,27.60
2018-01-15T08:18:18.353Z,24.70
2018-01-15T08:20:52.440Z,27.97
2018-01-15T08:23:26.641Z,26.77
2018-01-15T08:26:01.564Z,29.00
2018-01-15T08:28:35.593Z,28.03
2018-01-15T08:31:09.395Z,27.03
2018-01-15T08:33:44.070Z,28.33
2018-01-15T08:36:18.777Z,29.63
2018-01-15T08:38:52.550Z,32.30
2018-01-15T08:41:27.253Z,33.17
2018-01-15T08:44:00.881Z,30.27
2018-01-15T08:46:35.601Z,32.10
2018-01-15T08:49:10.388Z,36.13
2018-01-15T08:51:44.482Z,32.43
2018-01-15T08:54:18.925Z,34.70
2018-01-15T08:56:53.207Z,33.37
2018-01-15T08:59:27.665Z,34.13
2018-01-15T09:02:01.777Z,31.97
2018-01-15T09:04:35.907Z,34.63
2018-01-15T09:07:10.495Z,42.83
2018-01-15T09:09:44.338Z,33.10
2018-01-15T09:12:18.377Z,35.63
2018-01-15T09:14:52.984Z,34.40
2018-01-15T09:17:26.915Z,36.00
2018-01-15T09:20:01.010Z,39.50
2018-01-15T09:22:35.499Z,60.00
2018-01-15T09:25:10.428Z,29.40
2018-01-15T09:27:44.556Z,47.00
2018-01-15T09:30:19.269Z,39.80
2018-01-15T09:32:53.811Z,43.50
2018-01-15T09:35:27.803Z,38.03
2018-01-15T09:38:02.874Z,30.40
2018-01-15T09:40:38.386Z,33.60
2018-01-15T09:43:13.768Z,29.23
2018-01-15T09:45:48.132Z,30.53
2018-01-15T09:48:22.780Z,32.77
2018-01-15T09:50:56.606Z,32.13
2018-01-15T09:53:31.328Z,40.67
2018-01-15T09:56:05.861Z,36.40
2018-01-15T09:58:39.623Z,37.33
2018-01-15T10:01:14.220Z,44.47
2018-01-15T10:03:48.721Z,32.43
2018-01-15T10:06:23.168Z,36.23
2018-01-15T10:08:57.206Z,43.30
2018-01-15T10:11:32.470Z,29.50
2018-01-15T10:14:06.917Z,33.00
2018-01-15T10:16:40.549Z,41.73
2018-01-15T10:19:14.413Z,35.33
2018-01-15T10:21:49.510Z,34.30
2018-01-15T10:24:23.384Z,35.72
2018-01-15T10:26:57.181Z,31.60
2018-01-15T10:29:32.043Z,32.93
2018-01-15T10:32:05.779Z,29.13
2018-01-15T10:34:39.508Z,37.00
2018-01-15T10:37:13.216Z,29.47
2018-01-15T10:39:48.885Z,30.03
2018-01-15T10:42:22.631Z,29.00
2018-01-15T10:44:56.524Z,30.63
2018-01-15T10:47:31.133Z,27.47
2018-01-15T10:50:05.740Z,28.63
2018-01-15T10:52:40.230Z,26.17
2018-01-15T10:55:14.123Z,31.30
2018-01-15T10:57:48.723Z,35.97
2018-01-15T11:00:28.978Z,29.77
2018-01-15T11:03:03.901Z,31.97
2018-01-15T11:05:38.103Z,30.43
2018-01-15T11:08:12.800Z,28.23
2018-01-15T11:10:46.595Z,32.77
2018-01-15T11:13:20.431Z,31.30
2018-01-15T11:15:55.929Z,43.43
2018-01-15T11:18:29.670Z,33.40
2018-01-15T11:21:03.536Z,30.57
2018-01-15T11:23:39.343Z,36.10
2018-01-15T11:26:13.400Z,33.83
2018-01-15T11:28:47.786Z,35.73
2018-01-15T11:31:22.173Z,28.45
2018-01-15T11:33:56.843Z,90.10
2018-01-15T11:36:30.684Z,61.23
2018-01-15T11:39:05.809Z,38.83
2018-01-15T11:41:39.689Z,50.27
2018-01-15T11:44:13.485Z,28.03
2018-01-15T11:46:48.244Z,29.57
2018-01-15T11:49:22.212Z,29.27
2018-01-15T11:51:57.687Z,26.33
2018-01-15T11:54:31.648Z,26.53
2018-01-15T11:57:06.422Z,25.27
2018-01-15T11:59:40.396Z,27.60
2018-01-15T12:02:14.183Z,27.23
2018-01-15T12:04:47.825Z,32.47
2018-01-15T12:07:21.792Z,25.20
2018-01-15T12:09:55.822Z,49.30
2018-01-15T12:12:30.367Z,29.77
2018-01-15T12:15:04.145Z,71.87
2018-01-15T12:17:38.907Z,84.30
2018-01-15T12:20:13.636Z,47.67
2018-01-15T12:22:48.385Z,44.37
2018-01-15T12:25:22.380Z,54.63
2018-01-15T12:27:56.332Z,26.97
2018-01-15T12:30:30.906Z,47.80
2018-01-15T12:33:05.889Z,55.73
2018-01-15T12:35:39.867Z,31.07
2018-01-15T12:38:14.471Z,32.40
2018-01-15T12:40:49.788Z,52.90
2018-01-15T12:43:25.285Z,35.67
2018-01-15T12:45:59.125Z,30.33
2018-01-15T12:48:32.816Z,38.93
2018-01-15T12:51:07.413Z,34.93
2018-01-15T12:53:41.692Z,44.23
2018-01-15T12:56:17.043Z,37.23
2018-01-15T12:58:51.804Z,29.30
2018-01-15T13:01:26.371Z,29.43
2018-01-15T13:04:00.465Z,27.77
2018-01-15T13:06:45.751Z,41.40
2018-01-15T13:09:20.949Z,29.57
2018-01-15T13:11:55.835Z,36.13
2018-01-15T13:14:30.820Z,26.07
2018-01-15T13:17:04.884Z,25.93
2018-01-15T13:19:39.584Z,28.47
2018-01-15T13:22:13.376Z,25.87
2018-01-15T13:24:47.946Z,27.30
2018-01-15T13:27:21.575Z,28.70
2018-01-15T13:29:55.296Z,29.30
2018-01-15T13:32:29.262Z,27.83
2018-01-15T13:35:03.934Z,26.37
2018-01-15T13:37:37.835Z,25.77
2018-01-15T13:40:12.429Z,23.90
2018-01-15T13:42:46.507Z,29.30
2018-01-15T13:45:20.430Z,27.47
2018-01-15T13:47:55.874Z,24.10
2018-01-15T13:50:30.065Z,35.77
2018-01-15T13:53:04.801Z,24.27
2018-01-15T13:55:38.704Z,29.27
2018-01-15T13:58:12.881Z,25.53
2018-01-15T14:00:47.566Z,25.77
2018-01-15T14:03:24.471Z,26.23
2018-01-15T14:05:59.090Z,21.43
2018-01-15T14:08:33.792Z,22.87
2018-01-15T14:11:07.985Z,29.47
2018-01-15T14:13:41.901Z,27.63
2018-01-15T14:16:17.393Z,22.43
2018-01-15T14:18:51.478Z,21.83
2018-01-15T14:21:25.509Z,24.53
2018-01-15T14:23:59.248Z,25.10
2018-01-15T14:26:33.063Z,21.87
2018-01-15T14:29:06.808Z,23.10
2018-01-15T14:31:41.546Z,26.63
2018-01-15T14:34:15.463Z,23.53
2018-01-15T14:36:49.982Z,24.23
2018-01-15T14:39:23.958Z,39.33
2018-01-15T14:41:59.437Z,31.80
2018-01-15T14:44:33.459Z,20.60
2018-01-15T14:47:07.238Z,27.63
2018-01-15T14:49:41.738Z,24.97
2018-01-15T14:52:16.001Z,31.80
2018-01-15T14:54:50.682Z,28.50
2018-01-15T14:57:24.448Z,22.20
2018-01-15T14:59:58.548Z,24.87
2018-01-15T15:02:32.379Z,22.80
2018-01-15T15:05:06.209Z,25.60
2018-01-15T15:07:41.188Z,24.27
2018-01-15T15:10:15.578Z,22.40
2018-01-15T15:12:49.323Z,26.40
2018-01-15T15:15:23.892Z,35.67
2018-01-15T15:17:59.100Z,29.17
2018-01-15T15:20:33.149Z,27.60
2018-01-15T15:23:07.140Z,23.90
2018-01-15T15:25:41.864Z,20.37
2018-01-15T15:28:15.785Z,24.13
2018-01-15T15:30:49.949Z,33.17
2018-01-15T15:33:23.731Z,26.83
2018-01-15T15:35:57.435Z,24.27
2018-01-15T15:38:31.325Z,21.70
2018-01-15T15:41:04.989Z,27.33
2018-01-15T15:43:39.706Z,20.80
2018-01-15T15:46:13.460Z,19.13
2018-01-15T15:48:47.229Z,23.83
2018-01-15T15:51:21.777Z,25.47
2018-01-15T15:53:55.878Z,19.63
2018-01-15T15:56:29.783Z,20.13
2018-01-15T15:59:04.492Z,22.43
2018-01-15T16:01:38.240Z,25.00
2018-01-15T16:04:13.710Z,27.20
2018-01-15T16:06:49.247Z,30.07
2018-01-15T16:09:23.153Z,22.40
2018-01-15T16:11:58.583Z,28.70
2018-01-15T16:14:33.735Z,23.43
2018-01-15T16:17:07.580Z,20.87
2018-01-15T16:19:42.321Z,22.70
2018-01-15T16:22:29.413Z,20.97
2018-01-15T16:25:03.426Z,22.27
2018-01-15T16:27:37.282Z,23.57
2018-01-15T16:30:11.478Z,25.40
2018-01-15T16:32:46.011Z,20.53
2018-01-15T16:35:20.310Z,22.43
2018-01-15T16:37:54.132Z,24.57
2018-01-15T16:40:28.010Z,29.53
2018-01-15T16:43:02.506Z,25.57
2018-01-15T16:45:36.616Z,30.77
2018-01-15T16:48:11.325Z,24.37
2018-01-15T16:50:45.277Z,28.33
2018-01-15T16:53:19.184Z,27.93
2018-01-15T16:55:53.865Z,23.03
2018-01-15T16:58:28.594Z,21.63
2018-01-15T17:01:02.549Z,24.13
2018-01-15T17:03:37.254Z,26.13
2018-01-15T17:06:11.144Z,25.50
2018-01-15T17:08:45.942Z,22.77
2018-01-15T17:11:19.931Z,32.87
2018-01-15T17:13:54.768Z,32.60
2018-01-15T17:16:28.824Z,21.40
2018-01-15T17:19:02.521Z,28.70
2018-01-15T17:21:37.378Z,23.00
2018-01-15T17:24:11.478Z,22.97
2018-01-15T17:26:45.309Z,22.10
2018-01-15T17:29:19.248Z,19.33
2018-01-15T17:31:53.155Z,20.70
2018-01-15T17:34:27.725Z,23.40
2018-01-15T17:37:01.844Z,28.20
2018-01-15T17:39:35.691Z,21.17
2018-01-15T17:42:09.390Z,24.70
2018-01-15T17:44:43.253Z,21.73
2018-01-15T17:47:17.851Z,25.07
2018-01-15T17:49:52.561Z,21.03
2018-01-15T17:52:27.420Z,24.00
2018-01-15T17:55:02.650Z,21.47
2018-01-15T17:57:36.681Z,35.97
2018-01-15T18:00:10.428Z,20.70
2018-01-15T18:02:45.150Z,27.60
2018-01-15T18:05:19.100Z,21.10
2018-01-15T18:07:52.891Z,19.83
2018-01-15T18:10:26.615Z,21.13
2018-01-15T18:13:00.458Z,19.43
2018-01-15T18:15:35.275Z,20.77
2018-01-15T18:18:09.165Z,19.70
2018-01-15T18:20:42.914Z,17.27
2018-01-15T18:23:20.100Z,16.47
2018-01-15T18:25:55.057Z,14.67
2018-01-15T18:28:29.372Z,17.03
2018-01-15T18:31:03.151Z,11.97
2018-01-15T18:33:37.724Z,16.33
2018-01-15T18:36:11.814Z,14.20
2018-01-15T18:38:45.726Z,24.30
2018-01-15T18:41:19.764Z,26.93
2018-01-15T18:43:53.599Z,17.27
2018-01-15T18:46:28.339Z,18.90
2018-01-15T18:49:02.307Z,16.90
2018-01-15T18:51:36.954Z,17.60
2018-01-15T18:54:10.842Z,14.27
2018-01-15T18:56:44.945Z,12.47
2018-01-15T18:59:18.731Z,17.10
2018-01-15T19:01:52.461Z,13.33
2018-01-15T19:04:26.335Z,17.63
2018-01-15T19:07:01.147Z,12.80
2018-01-15T19:09:35.430Z,9.33
2018-01-15T19:12:12.260Z,14.53
2018-01-15T19:14:46.209Z,8.43
2018-01-15T19:17:20.881Z,12.60
2018-01-15T19:19:54.772Z,14.00
2018-01-15T19:22:29.149Z,12.90
2018-01-15T19:25:03.241Z,13.73
2018-01-15T19:27:37.237Z,8.83
2018-01-15T19:30:12.378Z,12.27
2018-01-15T19:32:46.770Z,18.03
2018-01-15T19:35:33.112Z,10.33
2018-01-15T19:38:08.665Z,7.80
2018-01-15T19:40:42.832Z,13.10
2018-01-15T19:43:18.425Z,10.10
2018-01-15T19:45:59.097Z,7.70
2018-01-15T19:48:39.399Z,9.57
2018-01-15T19:51:19.264Z,8.23
2018-01-15T19:54:09.195Z,9.10
2018-01-15T19:56:49.399Z,9.43
2018-01-15T20:02:35.373Z,9.27
2018-01-15T20:05:15.400Z,7.97
2018-01-15T20:07:55.968Z,8.60
2018-01-15T20:10:35.903Z,9.47
2018-01-15T20:13:09.882Z,8.50
2018-01-15T20:15:44.416Z,7.20
2018-01-15T20:18:19.273Z,13.53
2018-01-15T20:20:53.207Z,7.67
2018-01-15T20:23:28.283Z,12.37
2018-01-15T20:26:02.228Z,7.33
2018-01-15T20:28:35.959Z,6.70
2018-01-15T20:31:10.090Z,9.50
2018-01-15T20:33:44.886Z,7.83
2018-01-15T20:36:18.688Z,8.13
2018-01-15T20:38:52.331Z,6.17
2018-01-15T20:41:27.023Z,10.20
2018-01-15T20:44:01.818Z,6.17
2018-01-15T20:46:36.063Z,6.70
2018-01-15T20:49:10.740Z,7.83
2018-01-15T20:51:44.473Z,10.00
2018-01-15T20:54:18.740Z,9.87
2018-01-15T20:56:53.373Z,8.27
2018-01-15T20:59:27.346Z,7.10
2018-01-15T21:02:01.059Z,6.43
2018-01-15T21:04:35.248Z,9.13
2018-01-15T21:07:08.980Z,10.40
2018-01-15T21:09:42.921Z,8.83
2018-01-15T21:12:17.467Z,7.33
2018-01-15T21:14:51.596Z,12.43
2018-01-15T21:17:26.124Z,8.67
2018-01-15T21:20:00.615Z,8.23
2018-01-15T21:22:34.695Z,10.47
2018-01-15T21:25:08.789Z,9.57
2018-01-15T21:27:42.685Z,6.07
2018-01-15T21:30:16.490Z,10.00
2018-01-15T21:32:50.179Z,12.43
2018-01-15T21:35:24.069Z,6.47
2018-01-15T21:37:57.937Z,6.50
2018-01-15T21:40:33.487Z,7.30
2018-01-15T21:43:08.210Z,4.33
2018-01-15T21:45:42.980Z,5.03
2018-01-15T21:48:16.978Z,8.40
2018-01-15T21:50:50.768Z,7.37
2018-01-15T21:53:25.474Z,5.07
2018-01-15T21:56:00.147Z,7.33
2018-01-15T21:58:34.398Z,10.40
2018-01-15T22:01:08.171Z,7.03
2018-01-15T22:03:42.992Z,8.20
2018-01-15T22:06:17.991Z,5.33
2018-01-15T22:08:52.261Z,21.67
2018-01-15T22:11:25.943Z,5.70
2018-01-15T22:13:59.810Z,6.47
2018-01-15T22:16:34.036Z,4.97
2018-01-15T22:19:08.224Z,12.70
2018-01-15T22:21:42.025Z,6.30
2018-01-15T22:24:16.246Z,5.53
2018-01-15T22:26:51.744Z,5.37
2018-01-15T22:29:25.723Z,7.47
2018-01-15T22:32:01.189Z,5.93
2018-01-15T22:34:35.304Z,9.40
2018-01-15T22:37:09.033Z,11.30
2018-01-15T22:39:43.729Z,8.53
2018-01-15T22:42:17.548Z,4.60
2018-01-15T22:44:52.282Z,7.87
2018-01-15T22:47:26.037Z,6.87
2018-01-15T22:50:00.577Z,6.00
2018-01-15T22:52:34.639Z,7.80
2018-01-15T22:55:10.032Z,8.57
2018-01-15T22:57:44.166Z,4.33
2018-01-15T23:00:18.648Z,5.60
2018-01-15T23:02:57.040Z,7.07
2018-01-15T23:05:31.998Z,8.73
2018-01-15T23:08:07.195Z,4.87
2018-01-15T23:10:42.070Z,6.37
2018-01-15T23:13:16.709Z,5.10
2018-01-15T23:15:52.048Z,4.50
2018-01-15T23:18:26.817Z,6.90
2018-01-15T23:21:01.172Z,4.60
2018-01-15T23:23:35.649Z,4.10
2018-01-15T23:26:11.272Z,4.97
2018-01-15T23:28:45.616Z,4.87
2018-01-15T23:31:20.215Z,5.60
2018-01-15T23:33:55.477Z,4.93
2018-01-15T23:36:29.761Z,5.07
2018-01-15T23:39:03.609Z,8.13
2018-01-15T23:41:38.057Z,8.63
2018-01-15T23:44:14.338Z,8.47
2018-01-15T23:46:48.629Z,9.67
2018-01-15T23:49:22.664Z,7.63
2018-01-15T23:51:57.139Z,6.57
2018-01-15T23:54:33.817Z,7.80
2018-01-15T23:57:09.200Z,6.67
2018-01-15T23:59:43.296Z,6.43
